Braithwaite, Louisiana
Current Conditions -  °F | °C
As of 11:55 PM on Thursday 27 Nov 2014 (Local Time) from KNBG Reporting Station
Clear Clear  
Wind Chill: 43°   Ceiling: Unl
Heat Index: 45°   Visibility: NA
Dew Point: 34°   Wind: 5mph
Humidity: 65%   Direction: 30°NNE
Pressure: 30.43"   Gusts: NA
Location:  29.87°N, 89.94°W
Report Text: KNBG 280555Z AUTO 03004KT CLR 07/01 A3043 RMK AO2 SLP302 T00720011 10122 20044 401610044 58005 TSNO $
Loading
Personal Weather Stations






























Interactive Weather Map New forecast layout! Learn more

10-Day Weather Forecast

Advertisements
Track Severe Weather on mobile